Time;durP1;ratioP1;P1;durP2;ratioP2;P2;SDS_P1;SDS_P2;PMS_P1;PMS_P2;Temp;Humidity;BMP_temperature;BMP_pressure;BME280_temperature;BME280_humidity;BME280_pressure;Samples;Min_cycle;Max_cycle;Signal;HPM_P1;HPM_P2
2021/06/01 00:01:50;;;;;;;7.30;5.60;;;21.00;61.30;;;;;;5094142;28;20064;-67
2021/06/01 00:04:17;;;;;;;6.43;5.50;;;21.00;61.40;;;;;;5094442;28;20454;-67
2021/06/01 00:06:44;;;;;;;7.45;5.00;;;21.00;61.30;;;;;;5094102;28;20084;-67
2021/06/01 00:09:13;;;;;;;5.63;4.35;;;20.90;61.20;;;;;;5093979;28;20475;-67
2021/06/01 00:11:39;;;;;;;7.40;4.72;;;20.90;61.20;;;;;;5094017;28;20092;-68
2021/06/01 00:14:06;;;;;;;5.35;4.70;;;20.90;61.20;;;;;;5090488;28;20039;-67
2021/06/01 00:16:32;;;;;;;7.75;4.68;;;20.90;61.20;;;;;;5073676;28;20093;-66
2021/06/01 00:18:57;;;;;;;4.72;3.80;;;20.90;61.20;;;;;;5073809;28;20539;-68
2021/06/01 00:21:24;;;;;;;5.15;4.25;;;20.90;61.10;;;;;;5073592;28;20482;-68
2021/06/01 00:23:52;;;;;;;5.40;4.25;;;20.90;61.10;;;;;;5073287;28;20137;-68
2021/06/01 00:26:18;;;;;;;6.03;3.92;;;20.90;61.10;;;;;;5073316;28;20036;-68
2021/06/01 00:28:45;;;;;;;6.03;3.80;;;20.90;61.10;;;;;;5083115;28;20037;-68
2021/06/01 00:31:10;;;;;;;5.13;3.75;;;20.90;61.20;;;;;;5092196;28;20044;-67
2021/06/01 00:33:37;;;;;;;5.55;4.28;;;20.90;61.20;;;;;;5093470;28;20032;-67
2021/06/01 00:36:03;;;;;;;5.90;3.78;;;20.90;61.20;;;;;;5093681;28;20045;-65
2021/06/01 00:38:29;;;;;;;4.20;3.63;;;20.90;61.30;;;;;;5081399;28;20183;-68
2021/06/01 00:40:56;;;;;;;5.70;4.07;;;20.90;61.30;;;;;;5073545;28;20526;-68
2021/06/01 00:43:21;;;;;;;4.80;3.38;;;20.90;61.30;;;;;;5073272;28;20090;-67
2021/06/01 00:45:47;;;;;;;4.88;3.67;;;20.90;61.20;;;;;;5073333;28;20037;-68
2021/06/01 00:48:13;;;;;;;4.72;3.65;;;20.90;61.20;;;;;;5091426;28;20054;-68
2021/06/01 00:50:39;;;;;;;6.90;2.92;;;20.90;61.20;;;;;;5093047;28;20054;-68
2021/06/01 00:53:06;;;;;;;7.70;3.67;;;20.90;61.20;;;;;;5092834;28;20458;-67
2021/06/01 00:55:32;;;;;;;6.97;3.53;;;20.90;61.20;;;;;;5093174;28;20035;-68
2021/06/01 00:57:58;;;;;;;5.88;3.72;;;20.90;61.20;;;;;;5093348;28;20043;-69
2021/06/01 01:02:59;;;;;;;3.88;3.47;;;20.80;61.30;;;;;;5091125;28;20042;-68
2021/06/01 01:05:31;;;;;;;4.43;3.53;;;20.80;61.30;;;;;;5092829;28;20071;-68
2021/06/01 01:08:22;;;;;;;4.03;3.47;;;20.80;61.40;;;;;;5093109;28;20149;-68
2021/06/01 01:10:51;;;;;;;4.90;3.40;;;20.80;61.30;;;;;;5093068;28;20124;-68
2021/06/01 01:13:19;;;;;;;4.75;3.42;;;20.80;61.30;;;;;;5093025;28;20484;-68
2021/06/01 01:15:49;;;;;;;4.07;3.65;;;20.80;61.20;;;;;;5092875;28;20033;-68
2021/06/01 01:18:19;;;;;;;4.38;3.55;;;20.80;61.20;;;;;;5074018;28;20079;-67
2021/06/01 01:21:04;;;;;;;4.63;3.15;;;20.90;61.10;;;;;;5072635;28;20481;-68
2021/06/01 01:23:34;;;;;;;4.78;3.85;;;20.90;60.90;;;;;;5072772;28;20483;-68
2021/06/01 01:26:28;;;;;;;5.45;3.80;;;20.90;60.80;;;;;;5072346;28;20528;-68
2021/06/01 01:29:38;;;;;;;3.88;3.30;;;20.90;60.90;;;;;;5072717;28;20447;-68
2021/06/01 01:32:07;;;;;;;5.20;3.65;;;20.80;60.90;;;;;;5070037;28;20071;-69
2021/06/01 01:34:34;;;;;;;4.25;3.60;;;20.80;61.00;;;;;;5068955;28;20485;-68
2021/06/01 01:37:01;;;;;;;5.35;3.80;;;20.80;61.00;;;;;;5071133;28;20056;-68
2021/06/01 01:39:33;;;;;;;4.40;3.45;;;20.70;61.00;;;;;;5071948;28;20093;-68
2021/06/01 01:42:00;;;;;;;3.92;3.25;;;20.70;61.10;;;;;;5072234;28;20048;-68
2021/06/01 01:44:27;;;;;;;3.65;2.83;;;20.70;61.10;;;;;;5072384;28;20161;-68
2021/06/01 01:49:23;;;;;;;4.85;3.22;;;20.70;61.20;;;;;;5072259;28;20053;-68
2021/06/01 01:51:53;;;;;;;3.80;3.08;;;20.70;61.30;;;;;;5082673;28;20065;-68
2021/06/01 01:54:23;;;;;;;3.50;3.20;;;20.70;61.20;;;;;;5086604;28;20079;-68
2021/06/01 01:56:53;;;;;;;4.47;3.35;;;20.70;61.20;;;;;;5071946;28;20121;-68
2021/06/01 01:59:24;;;;;;;5.15;3.15;;;20.70;61.20;;;;;;5072318;28;20393;-68
2021/06/01 02:01:52;;;;;;;4.53;3.30;;;20.80;61.20;;;;;;5071839;28;20527;-68
2021/06/01 02:04:22;;;;;;;5.35;3.67;;;20.70;61.20;;;;;;5072360;28;20100;-68
2021/06/01 02:06:48;;;;;;;4.35;3.22;;;20.70;61.20;;;;;;5073010;28;20047;-68
2021/06/01 02:09:14;;;;;;;4.55;4.07;;;20.70;61.10;;;;;;5073451;28;20124;-68
2021/06/01 02:11:40;;;;;;;5.15;3.30;;;20.70;61.20;;;;;;5072221;28;20058;-67
2021/06/01 02:14:06;;;;;;;5.85;3.47;;;20.70;61.20;;;;;;5071880;28;20085;-69
2021/06/01 02:16:35;;;;;;;4.18;3.72;;;20.70;61.30;;;;;;5071781;28;20039;-68
2021/06/01 02:19:01;;;;;;;4.18;2.85;;;20.70;61.30;;;;;;5071800;28;20049;-68
2021/06/01 02:21:46;;;;;;;4.25;3.38;;;20.70;61.40;;;;;;5072021;28;20099;-68
2021/06/01 02:24:33;;;;;;;5.53;3.35;;;20.70;61.40;;;;;;5071900;28;20065;-68
2021/06/01 02:26:59;;;;;;;5.07;3.67;;;20.70;61.40;;;;;;5071790;28;20059;-69
2021/06/01 02:29:43;;;;;;;4.63;3.03;;;20.70;61.40;;;;;;5071798;28;20042;-68
2021/06/01 02:32:11;;;;;;;3.70;3.10;;;20.70;61.40;;;;;;5070902;28;20040;-68
2021/06/01 02:34:40;;;;;;;4.40;3.10;;;20.70;61.30;;;;;;5070402;28;20033;-69
2021/06/01 02:37:08;;;;;;;6.22;3.97;;;20.70;61.30;;;;;;5071797;28;20036;-68
2021/06/01 02:39:35;;;;;;;4.50;3.08;;;20.70;61.20;;;;;;5071312;28;20181;-68
2021/06/01 02:42:02;;;;;;;3.60;3.10;;;20.70;61.30;;;;;;5071948;28;20423;-68
2021/06/01 02:44:30;;;;;;;5.65;4.20;;;20.70;61.30;;;;;;5071572;28;20107;-68
2021/06/01 02:46:57;;;;;;;8.77;3.42;;;20.70;61.40;;;;;;5071526;28;20146;-68
2021/06/01 02:49:23;;;;;;;3.83;3.40;;;20.70;61.30;;;;;;5072069;28;20049;-68
2021/06/01 02:51:50;;;;;;;5.60;3.78;;;20.70;61.30;;;;;;5074169;28;20042;-68
2021/06/01 02:54:16;;;;;;;4.72;3.40;;;20.70;61.30;;;;;;5087701;28;20044;-68
2021/06/01 02:56:42;;;;;;;4.93;3.75;;;20.70;61.40;;;;;;5095571;28;20047;-68
2021/06/01 02:59:08;;;;;;;4.63;3.75;;;20.70;61.40;;;;;;5095648;28;20078;-68
2021/06/01 03:01:34;;;;;;;4.53;3.63;;;20.70;61.40;;;;;;5095394;28;20194;-68
2021/06/01 03:04:00;;;;;;;4.50;3.53;;;20.70;61.40;;;;;;5095114;28;20538;-68
2021/06/01 03:06:27;;;;;;;4.50;3.67;;;20.70;61.50;;;;;;5094648;28;20041;-68
2021/06/01 03:08:53;;;;;;;4.13;3.30;;;20.70;61.50;;;;;;5095472;28;20036;-68
2021/06/01 03:11:20;;;;;;;4.57;3.60;;;20.70;61.60;;;;;;5095051;28;20092;-68
2021/06/01 03:13:48;;;;;;;4.20;3.40;;;20.70;61.60;;;;;;5095590;28;20070;-68
2021/06/01 03:16:15;;;;;;;4.80;3.63;;;20.60;61.70;;;;;;5094908;28;20029;-67
2021/06/01 03:18:41;;;;;;;5.70;3.60;;;20.60;61.80;;;;;;5095313;28;20385;-69
2021/06/01 03:21:07;;;;;;;5.55;4.05;;;20.60;61.90;;;;;;5079770;28;20049;-68
2021/06/01 03:23:33;;;;;;;5.93;3.70;;;20.60;61.90;;;;;;5075087;28;20052;-68
2021/06/01 03:25:59;;;;;;;4.97;3.40;;;20.60;62.00;;;;;;5074708;28;20428;-68
2021/06/01 03:28:26;;;;;;;5.22;3.80;;;20.60;62.10;;;;;;5074895;28;20082;-68
2021/06/01 03:30:52;;;;;;;5.82;3.38;;;20.60;62.20;;;;;;5074569;28;20061;-69
2021/06/01 03:33:18;;;;;;;4.10;3.65;;;20.60;62.30;;;;;;5074570;28;20138;-68
2021/06/01 03:35:44;;;;;;;4.70;3.53;;;20.60;62.40;;;;;;5074654;28;20045;-68
2021/06/01 03:38:10;;;;;;;8.40;3.78;;;20.60;62.50;;;;;;5074377;28;20481;-68
2021/06/01 03:40:36;;;;;;;5.40;4.03;;;20.60;62.70;;;;;;5074529;28;20550;-67
2021/06/01 03:43:02;;;;;;;3.83;3.42;;;20.60;62.80;;;;;;5074412;28;20037;-67
2021/06/01 03:45:28;;;;;;;3.65;3.28;;;20.60;62.80;;;;;;5074541;28;20063;-67
2021/06/01 03:47:54;;;;;;;4.80;3.47;;;20.60;62.90;;;;;;5074069;28;20041;-67
2021/06/01 03:50:21;;;;;;;4.82;3.58;;;20.60;62.90;;;;;;5081667;28;20484;-67
2021/06/01 03:52:47;;;;;;;4.25;3.25;;;20.60;63.00;;;;;;5094360;28;20037;-65
2021/06/01 03:55:13;;;;;;;3.72;3.10;;;20.60;63.10;;;;;;5094788;28;20040;-67
2021/06/01 03:57:39;;;;;;;4.63;3.40;;;20.60;63.20;;;;;;5094320;28;20042;-67
2021/06/01 04:00:10;;;;;;;5.38;3.55;;;20.60;63.30;;;;;;5094351;28;20372;-67
2021/06/01 04:02:37;;;;;;;6.03;3.92;;;20.60;63.50;;;;;;5092125;28;20086;-67
2021/06/01 04:05:04;;;;;;;5.70;3.75;;;20.60;63.60;;;;;;5094266;28;20055;-67
2021/06/01 04:07:30;;;;;;;5.93;3.65;;;20.60;63.80;;;;;;5093922;28;20499;-67
2021/06/01 04:09:55;;;;;;;4.88;3.15;;;20.60;64.00;;;;;;5094399;28;20058;-67
2021/06/01 04:12:21;;;;;;;5.40;3.67;;;20.60;64.20;;;;;;5094273;28;20041;-67
2021/06/01 04:14:47;;;;;;;8.65;4.82;;;20.60;64.20;;;;;;5094091;28;20089;-68
2021/06/01 04:17:13;;;;;;;6.53;4.28;;;20.60;64.30;;;;;;5094009;28;20034;-68
2021/06/01 04:19:38;;;;;;;7.35;3.72;;;20.60;64.40;;;;;;5075798;28;20060;-68
2021/06/01 04:22:04;;;;;;;5.88;3.70;;;20.60;64.40;;;;;;5073895;28;20048;-68
2021/06/01 04:24:30;;;;;;;6.80;3.83;;;20.60;64.50;;;;;;5073738;28;20148;-68
2021/06/01 04:26:57;;;;;;;6.70;4.05;;;20.60;64.50;;;;;;5073684;28;20578;-68
2021/06/01 04:29:22;;;;;;;5.95;3.97;;;20.60;64.40;;;;;;5073267;28;20076;-68
2021/06/01 04:31:49;;;;;;;4.70;3.90;;;20.60;64.50;;;;;;5073498;28;20058;-68
2021/06/01 04:34:15;;;;;;;8.68;4.22;;;20.60;64.60;;;;;;5091857;28;20043;-68
2021/06/01 04:36:41;;;;;;;6.07;3.75;;;20.60;64.80;;;;;;5093526;28;20037;-68
2021/06/01 04:39:07;;;;;;;5.32;3.90;;;20.60;64.80;;;;;;5093457;28;20125;-68
2021/06/01 04:41:33;;;;;;;4.68;3.78;;;20.60;64.90;;;;;;5093911;28;20403;-68
2021/06/01 04:43:58;;;;;;;5.50;3.67;;;20.60;64.90;;;;;;5093147;28;20089;-67
2021/06/01 04:46:24;;;;;;;10.10;4.00;;;20.60;65.00;;;;;;5093377;28;20038;-67
2021/06/01 04:48:51;;;;;;;4.93;4.35;;;20.60;65.00;;;;;;5093238;28;20075;-68
2021/06/01 04:51:17;;;;;;;5.70;3.95;;;20.60;65.00;;;;;;5091692;28;20047;-68
2021/06/01 04:53:52;;;;;;;6.22;3.70;;;20.60;65.00;;;;;;5093388;28;20403;-68
2021/06/01 04:56:19;;;;;;;5.32;4.55;;;20.60;65.10;;;;;;5093375;28;20131;-68
2021/06/01 04:58:45;;;;;;;7.43;4.18;;;20.60;65.30;;;;;;5093236;28;20139;-68
2021/06/01 05:01:10;;;;;;;5.95;3.97;;;20.60;65.30;;;;;;5091134;28;20065;-68
2021/06/01 05:03:37;;;;;;;5.95;3.70;;;20.50;66.20;;;;;;5093271;28;20062;-68
2021/06/01 05:06:04;;;;;;;6.47;4.22;;;20.60;65.50;;;;;;5093041;28;20095;-68
2021/06/01 05:08:30;;;;;;;7.65;4.47;;;20.60;65.50;;;;;;5092982;28;20037;-68
2021/06/01 05:10:55;;;;;;;6.60;3.95;;;20.60;65.50;;;;;;5092680;28;20041;-68
2021/06/01 05:13:21;;;;;;;4.60;4.00;;;20.60;65.50;;;;;;5075244;28;20121;-67
2021/06/01 05:15:49;;;;;;;6.70;4.25;;;20.60;65.40;;;;;;5072574;28;20426;-67
2021/06/01 05:18:15;;;;;;;4.88;4.00;;;20.60;65.50;;;;;;5072712;28;20114;-67
2021/06/01 05:20:41;;;;;;;5.65;3.92;;;20.60;65.70;;;;;;5072455;28;20037;-67
2021/06/01 05:23:07;;;;;;;5.63;4.13;;;20.60;66.40;;;;;;5071417;28;20046;-69
2021/06/01 05:25:33;;;;;;;5.78;4.20;;;20.60;65.60;;;;;;5072562;28;20410;-67
2021/06/01 05:27:58;;;;;;;4.85;4.07;;;20.60;65.60;;;;;;5072426;28;20373;-67
2021/06/01 05:33:28;;;;;;;6.50;4.45;;;20.60;65.70;;;;;;5081644;28;20066;-69
2021/06/01 05:35:54;;;;;;;4.75;3.67;;;20.60;65.70;;;;;;5075091;28;20037;-67
2021/06/01 05:38:21;;;;;;;4.63;4.03;;;20.60;65.80;;;;;;5084734;28;20079;-69
2021/06/01 05:40:47;;;;;;;5.53;4.13;;;20.60;65.80;;;;;;5092195;28;20052;-68
2021/06/01 05:43:13;;;;;;;4.90;3.80;;;20.60;65.30;;;;;;5091239;28;20485;-69
2021/06/01 05:45:39;;;;;;;5.35;4.00;;;20.60;64.80;;;;;;5091407;28;20078;-68
2021/06/01 05:48:07;;;;;;;8.70;4.10;;;20.60;64.40;;;;;;5077283;28;20041;-69
2021/06/01 05:50:33;;;;;;;4.28;3.58;;;20.60;64.10;;;;;;5091696;28;20048;-68
2021/06/01 05:53:00;;;;;;;4.38;3.80;;;20.60;63.80;;;;;;5071210;28;20045;-68
2021/06/01 05:55:26;;;;;;;5.95;4.47;;;20.60;63.30;;;;;;5071561;28;20053;-67
2021/06/01 05:57:52;;;;;;;7.32;3.80;;;20.60;63.10;;;;;;5071936;28;20075;-69
2021/06/01 06:00:18;;;;;;;6.18;4.78;;;20.60;62.80;;;;;;5071784;28;20416;-69
2021/06/01 06:02:44;;;;;;;6.03;4.50;;;20.60;62.50;;;;;;5072740;28;20088;-69
2021/06/01 06:05:10;;;;;;;5.18;4.00;;;20.60;62.30;;;;;;5071997;28;20551;-70
2021/06/01 06:07:35;;;;;;;6.57;4.38;;;20.60;62.00;;;;;;5071614;28;20049;-68
2021/06/01 06:10:02;;;;;;;5.40;3.83;;;20.70;62.20;;;;;;5071861;28;20041;-68
2021/06/01 06:12:27;;;;;;;6.45;3.78;;;20.80;62.00;;;;;;5071782;28;20476;-72
2021/06/01 06:14:53;;;;;;;5.85;4.05;;;20.80;62.10;;;;;;5072243;28;20046;-69
2021/06/01 06:17:37;;;;;;;5.93;3.85;;;20.80;62.20;;;;;;5071029;28;20033;-67
2021/06/01 06:20:05;;;;;;;8.75;4.10;;;20.80;62.20;;;;;;5071802;28;20087;-71
2021/06/01 06:22:31;;;;;;;6.22;3.85;;;20.80;62.20;;;;;;5071740;28;20120;-73
2021/06/01 06:24:57;;;;;;;6.22;3.60;;;20.80;62.30;;;;;;5073324;28;20562;-71
2021/06/01 06:27:22;;;;;;;4.93;3.15;;;20.80;62.20;;;;;;5076388;28;20045;-69
2021/06/01 06:29:48;;;;;;;7.22;4.10;;;20.90;62.30;;;;;;5075723;28;20045;-71
2021/06/01 06:32:14;;;;;;;6.25;3.80;;;20.90;62.20;;;;;;5075861;28;20119;-72
2021/06/01 06:34:39;;;;;;;4.68;3.20;;;20.90;62.00;;;;;;5075423;28;20035;-71
2021/06/01 06:37:05;;;;;;;11.18;7.47;;;20.90;61.90;;;;;;5075521;28;20565;-72
2021/06/01 06:39:32;;;;;;;136.13;93.68;;;20.80;61.90;;;;;;5075552;28;20170;-74
2021/06/01 06:41:59;;;;;;;185.65;123.78;;;20.60;62.40;;;;;;5075642;28;20475;-74
2021/06/01 06:44:24;;;;;;;186.32;123.63;;;20.60;62.80;;;;;;5075448;28;20068;-74
2021/06/01 06:47:41;;;;;;;196.82;133.18;;;20.50;63.30;;;;;;5075344;28;20044;-68
2021/06/01 06:49:38;;;;;;;119.50;82.20;;;20.60;64.30;;;;;;5074626;28;20375;-67
2021/06/01 06:52:06;;;;;;;107.07;71.30;;;20.70;63.40;;;;;;5075489;28;20491;-66
2021/06/01 06:54:31;;;;;;;120.35;87.57;;;20.60;62.60;;;;;;5075349;28;20137;-64
2021/06/01 06:56:57;;;;;;;182.30;126.68;;;20.60;62.40;;;;;;5075282;28;20455;-67
2021/06/01 06:59:23;;;;;;;230.70;166.18;;;20.60;61.60;;;;;;5077612;28;20036;-65
2021/06/01 07:01:48;;;;;;;242.63;176.18;;;20.60;61.20;;;;;;5081162;28;20058;-67
2021/06/01 07:04:14;;;;;;;206.20;154.10;;;20.60;60.90;;;;;;5082516;28;20425;-65
2021/06/01 07:06:40;;;;;;;182.02;130.07;;;20.70;60.80;;;;;;5085648;28;20393;-66
2021/06/01 07:09:07;;;;;;;163.85;118.25;;;20.70;60.80;;;;;;5083126;28;20127;-65
2021/06/01 07:11:33;;;;;;;149.65;106.15;;;20.70;60.70;;;;;;5072509;28;20040;-66
2021/06/01 07:14:10;;;;;;;128.60;95.65;;;20.80;60.70;;;;;;5073713;28;20081;-66
2021/06/01 07:16:37;;;;;;;117.78;86.30;;;20.80;60.70;;;;;;5073141;28;20089;-66
2021/06/01 07:19:04;;;;;;;109.43;83.20;;;20.80;60.60;;;;;;5073867;28;20047;-66
2021/06/01 07:21:29;;;;;;;108.82;77.18;;;20.70;60.50;;;;;;5093310;28;20591;-66
2021/06/01 07:23:55;;;;;;;92.82;70.20;;;20.80;60.40;;;;;;5081073;28;20089;-67
2021/06/01 07:26:21;;;;;;;95.50;66.25;;;20.80;60.30;;;;;;5073026;28;20047;-66
2021/06/01 07:28:47;;;;;;;92.40;66.13;;;20.80;60.30;;;;;;5074627;28;20046;-66
2021/06/01 07:31:16;;;;;;;90.15;64.28;;;20.80;60.30;;;;;;5074487;28;20511;-66
2021/06/01 07:33:42;;;;;;;80.10;59.45;;;20.90;60.30;;;;;;5074748;28;20055;-66
2021/06/01 07:36:09;;;;;;;78.85;57.92;;;20.80;60.00;;;;;;5073299;28;20043;-66
2021/06/01 07:38:35;;;;;;;81.65;58.72;;;20.80;59.90;;;;;;5074566;28;20083;-65
2021/06/01 07:41:03;;;;;;;77.18;55.17;;;20.80;60.00;;;;;;5074599;28;20047;-66
2021/06/01 07:43:29;;;;;;;69.35;50.63;;;20.80;59.70;;;;;;5074177;28;20117;-66
2021/06/01 07:45:55;;;;;;;64.50;50.50;;;20.90;59.60;;;;;;5073984;28;20405;-66
2021/06/01 07:48:21;;;;;;;64.78;48.50;;;20.90;59.70;;;;;;5074444;28;20125;-66
2021/06/01 07:50:46;;;;;;;62.38;47.80;;;20.90;59.70;;;;;;5074417;28;20034;-66
2021/06/01 07:53:12;;;;;;;64.38;48.97;;;20.90;59.80;;;;;;5074602;28;20404;-65
2021/06/01 07:55:38;;;;;;;59.80;45.55;;;20.90;59.70;;;;;;5072924;28;20425;-66
2021/06/01 07:58:04;;;;;;;58.65;44.60;;;20.90;59.70;;;;;;5074010;28;20158;-66
2021/06/01 08:00:29;;;;;;;54.42;42.83;;;20.90;59.70;;;;;;5073904;28;20141;-66
2021/06/01 08:02:55;;;;;;;56.83;39.78;;;20.90;59.60;;;;;;5072853;28;20129;-65
2021/06/01 08:05:22;;;;;;;51.20;38.70;;;20.90;59.50;;;;;;5074045;28;20068;-65
2021/06/01 08:07:49;;;;;;;56.58;41.70;;;20.90;59.50;;;;;;5073694;28;20440;-66
2021/06/01 08:10:21;;;;;;;56.35;41.20;;;20.90;59.60;;;;;;5074054;28;20438;-66
2021/06/01 08:12:47;;;;;;;51.22;37.92;;;20.90;59.70;;;;;;5073701;28;20045;-66
2021/06/01 08:15:15;;;;;;;51.00;37.65;;;20.90;59.70;;;;;;5073682;28;20450;-66
2021/06/01 08:17:41;;;;;;;45.47;35.40;;;20.90;59.70;;;;;;5073809;28;20032;-66
2021/06/01 08:20:14;;;;;;;47.17;35.13;;;20.90;59.70;;;;;;5073385;28;20052;-66
2021/06/01 08:22:41;;;;;;;44.88;33.47;;;20.90;59.70;;;;;;5073571;28;20051;-66
2021/06/01 08:25:09;;;;;;;44.42;33.90;;;20.90;59.80;;;;;;5073179;28;20068;-65
2021/06/01 08:27:35;;;;;;;44.70;32.80;;;20.90;59.90;;;;;;5073341;28;20047;-66
2021/06/01 08:30:00;;;;;;;42.22;32.95;;;20.90;59.90;;;;;;5073434;28;20044;-65
2021/06/01 08:32:26;;;;;;;44.58;33.00;;;20.90;59.90;;;;;;5072085;28;20502;-65
2021/06/01 08:34:52;;;;;;;41.55;31.83;;;21.00;60.00;;;;;;5073038;28;20033;-65
2021/06/01 08:37:18;;;;;;;46.38;32.33;;;20.90;59.90;;;;;;5073434;28;20070;-65
2021/06/01 08:39:43;;;;;;;39.72;29.27;;;20.90;59.90;;;;;;5073092;28;20480;-65
2021/06/01 08:42:09;;;;;;;34.10;27.80;;;21.00;59.80;;;;;;5072268;28;20044;-66
2021/06/01 08:44:35;;;;;;;34.38;27.20;;;20.90;59.70;;;;;;5072388;28;20064;-65
2021/06/01 08:47:02;;;;;;;33.10;25.42;;;21.00;59.80;;;;;;5073253;28;20032;-66
2021/06/01 08:49:28;;;;;;;35.55;27.35;;;21.00;59.80;;;;;;5072834;28;20075;-66
2021/06/01 08:51:53;;;;;;;37.55;26.08;;;21.00;59.80;;;;;;5073190;28;20063;-66
2021/06/01 08:54:19;;;;;;;30.10;23.45;;;21.00;59.80;;;;;;5071900;28;20045;-65
2021/06/01 08:56:45;;;;;;;31.52;25.10;;;21.00;59.80;;;;;;5072716;28;20144;-65
2021/06/01 08:59:12;;;;;;;31.73;25.08;;;21.00;59.90;;;;;;5072964;28;20514;-65
2021/06/01 09:01:38;;;;;;;29.70;23.42;;;21.00;60.00;;;;;;5072623;28;20046;-69
2021/06/01 09:04:10;;;;;;;30.83;23.55;;;21.00;60.00;;;;;;5073003;28;20057;-65
2021/06/01 09:09:50;;;;;;;31.58;24.35;;;21.00;60.00;;;;;;5071434;28;20288;-65
2021/06/01 09:13:10;;;;;;;30.35;22.52;;;21.00;60.00;;;;;;5072749;28;20028;-65
2021/06/01 09:21:07;;;;;;;26.20;21.50;;;21.00;59.90;;;;;;5071075;28;20425;-65
2021/06/01 09:23:48;;;;;;;25.90;21.13;;;21.00;59.90;;;;;;5072512;28;20208;-65
2021/06/01 09:26:43;;;;;;;28.38;20.15;;;21.00;59.70;;;;;;5072166;28;20052;-65
2021/06/01 09:29:09;;;;;;;25.35;19.48;;;21.00;59.60;;;;;;5072784;28;20505;-65
2021/06/01 09:31:34;;;;;;;26.73;19.42;;;21.00;59.60;;;;;;5072438;28;20038;-65
2021/06/01 09:34:00;;;;;;;26.48;20.15;;;21.00;59.60;;;;;;5072370;28;20044;-65
2021/06/01 09:36:26;;;;;;;22.73;19.45;;;21.00;59.60;;;;;;5072076;28;20133;-65
2021/06/01 09:38:51;;;;;;;24.58;19.40;;;21.00;59.50;;;;;;5072548;28;20105;-65
2021/06/01 09:41:28;;;;;;;24.42;18.95;;;21.00;59.50;;;;;;5072379;28;20035;-65
2021/06/01 09:43:55;;;;;;;22.55;18.42;;;21.00;59.50;;;;;;5072256;28;20068;-65
2021/06/01 09:46:27;;;;;;;21.42;17.17;;;21.00;59.50;;;;;;5072137;28;20074;-65
2021/06/01 09:48:55;;;;;;;21.38;17.45;;;21.00;59.50;;;;;;5072026;28;20034;-66
2021/06/01 09:51:24;;;;;;;19.33;15.50;;;21.00;59.60;;;;;;5072277;28;20033;-65
2021/06/01 09:53:53;;;;;;;23.13;17.58;;;21.00;59.60;;;;;;5072193;28;20119;-65
2021/06/01 09:56:19;;;;;;;24.23;18.42;;;21.00;59.60;;;;;;5072264;28;20040;-66
2021/06/01 09:58:45;;;;;;;20.63;15.95;;;21.00;59.60;;;;;;5071420;28;20426;-66
2021/06/01 10:01:11;;;;;;;21.13;16.00;;;21.00;59.60;;;;;;5071694;28;20550;-65
2021/06/01 10:03:49;;;;;;;19.27;16.63;;;21.00;59.60;;;;;;5071594;28;20098;-66
2021/06/01 10:06:15;;;;;;;20.83;17.30;;;21.00;59.60;;;;;;5072298;28;20073;-66
2021/06/01 10:08:49;;;;;;;18.45;15.63;;;21.10;59.70;;;;;;5072060;28;20419;-65
2021/06/01 10:11:16;;;;;;;20.98;15.52;;;21.00;59.70;;;;;;5070749;28;20043;-66
2021/06/01 10:13:42;;;;;;;21.92;16.35;;;21.10;59.70;;;;;;5071563;28;20434;-65
2021/06/01 10:16:11;;;;;;;22.42;16.45;;;21.10;59.70;;;;;;5071595;28;20035;-65
2021/06/01 10:18:40;;;;;;;21.23;15.75;;;21.10;59.70;;;;;;5071816;28;20155;-64
2021/06/01 10:21:09;;;;;;;18.20;15.45;;;21.10;59.70;;;;;;5071744;28;20071;-63
2021/06/01 10:23:41;;;;;;;26.33;15.18;;;21.10;59.70;;;;;;5071611;28;20055;-64
2021/06/01 10:26:09;;;;;;;21.02;16.83;;;21.10;59.70;;;;;;5071685;28;20385;-66
2021/06/01 10:28:38;;;;;;;20.70;15.70;;;21.10;59.70;;;;;;5071515;28;20049;-65
2021/06/01 10:31:06;;;;;;;19.20;15.05;;;21.10;59.70;;;;;;5074177;28;20060;-63
2021/06/01 10:33:38;;;;;;;21.65;15.07;;;21.10;59.70;;;;;;5091200;28;20487;-66
2021/06/01 10:50:34;;;;;;;18.80;13.75;;;21.10;59.80;;;;;;5091829;28;20052;-66
2021/06/01 10:53:26;;;;;;;17.90;14.32;;;21.10;59.80;;;;;;5091697;28;20385;-67
2021/06/01 10:56:01;;;;;;;19.15;15.63;;;21.10;59.80;;;;;;5090718;28;20696;-67
2021/06/01 10:58:41;;;;;;;18.73;16.92;;;21.20;59.90;;;;;;5091988;28;20029;-67
2021/06/01 11:04:22;;;;;;;18.55;15.65;;;21.20;60.20;;;;;;5081405;28;20375;-65
2021/06/01 11:09:34;;;;;;;21.38;14.82;;;21.20;60.40;;;;;;5079517;28;20040;-65
2021/06/01 11:12:17;;;;;;;17.63;13.90;;;21.20;60.50;;;;;;5082000;28;20481;-66
2021/06/01 11:15:05;;;;;;;22.63;14.68;;;21.20;60.50;;;;;;5082950;28;20509;-64
2021/06/01 11:17:35;;;;;;;24.58;15.35;;;21.20;60.40;;;;;;5082600;28;20074;-65
2021/06/01 11:20:39;;;;;;;42.80;31.83;;;21.20;60.50;;;;;;5084867;28;20057;-66
2021/06/01 11:33:33;;;;;;;99.82;76.97;;;21.20;60.70;;;;;;5083738;28;20047;-65
2021/06/01 11:36:04;;;;;;;96.88;73.38;;;21.20;60.70;;;;;;5082577;28;20044;-64
2021/06/01 11:38:51;;;;;;;100.40;76.85;;;21.20;60.80;;;;;;5083159;28;20086;-65
2021/06/01 11:44:17;;;;;;;87.75;69.05;;;21.20;60.80;;;;;;5081653;28;20110;-66
2021/06/01 11:46:47;;;;;;;84.93;66.03;;;21.30;60.90;;;;;;5082380;28;20581;-65
2021/06/01 11:51:59;;;;;;;78.80;60.67;;;21.30;60.80;;;;;;5084208;28;20050;-65
2021/06/01 11:54:24;;;;;;;83.03;59.33;;;21.30;60.80;;;;;;5082473;28;20045;-67
2021/06/01 11:57:09;;;;;;;80.55;61.10;;;21.30;60.80;;;;;;5083367;28;20033;-65
2021/06/01 12:02:54;;;;;;;97.10;73.88;;;21.30;60.80;;;;;;5094057;28;20038;-66
2021/06/01 12:18:42;;;;;;;112.95;82.43;;;21.30;61.40;;;;;;5093902;28;20081;-66
2021/06/01 12:21:10;;;;;;;102.57;79.47;;;21.30;60.70;;;;;;5093185;28;20043;-66
2021/06/01 12:23:43;;;;;;;101.95;77.45;;;21.30;60.60;;;;;;5092714;28;20039;-65
2021/06/01 12:31:55;;;;;;;96.55;70.95;;;21.30;60.60;;;;;;5093718;28;20044;-66
2021/06/01 12:34:42;;;;;;;85.40;66.82;;;21.30;60.60;;;;;;5093739;28;20064;-67
2021/06/01 12:42:59;;;;;;;86.75;65.97;;;21.30;60.60;;;;;;5093731;28;20542;-66
2021/06/01 13:30:38;;;;;;;41.80;33.72;;;21.40;60.60;;;;;;5091955;28;20065;-65
2021/06/01 13:47:00;;;;;;;35.03;29.63;;;21.30;60.60;;;;;;5092462;28;20033;-65
2021/06/01 13:49:35;;;;;;;35.85;29.40;;;21.40;60.60;;;;;;5092661;28;20041;-65
2021/06/01 14:11:04;;;;;;;33.33;24.55;;;21.40;61.40;;;;;;5092123;28;20082;-66
2021/06/01 14:38:21;;;;;;;26.13;22.42;;;21.40;60.60;;;;;;5091762;28;20079;-66
2021/06/01 16:44:19;;;;;;;15.45;13.82;;;21.50;60.90;;;;;;5093630;28;20383;-65
2021/06/01 17:03:28;;;;;;;14.68;13.18;;;21.50;61.00;;;;;;5072862;28;20126;-65
2021/06/01 17:06:03;;;;;;;14.02;12.73;;;21.50;61.00;;;;;;5071544;28;20068;-65
2021/06/01 17:08:48;;;;;;;14.70;12.20;;;21.60;61.10;;;;;;5072711;28;20055;-65
2021/06/01 17:11:18;;;;;;;14.15;12.65;;;21.60;61.10;;;;;;5072599;28;20472;-66
2021/06/01 17:13:59;;;;;;;13.63;12.23;;;21.60;61.10;;;;;;5073071;28;20034;-65
2021/06/01 17:35:10;;;;;;;12.20;11.00;;;21.60;61.10;;;;;;5073108;28;20165;-65
2021/06/01 17:37:35;;;;;;;12.73;11.43;;;21.60;61.10;;;;;;5072176;28;20047;-66
2021/06/01 17:40:02;;;;;;;13.23;11.50;;;21.50;60.90;;;;;;5072347;28;20478;-65
2021/06/01 17:42:30;;;;;;;12.43;11.20;;;21.60;61.10;;;;;;5071936;28;20063;-65
2021/06/01 17:45:00;;;;;;;12.75;11.32;;;21.50;61.00;;;;;;5072334;28;20125;-63
2021/06/01 17:47:27;;;;;;;14.33;12.10;;;21.60;61.10;;;;;;5071835;28;20057;-64
2021/06/01 17:49:56;;;;;;;23.42;11.30;;;21.60;61.60;;;;;;5072211;28;20076;-57
2021/06/01 17:52:29;;;;;;;16.05;10.70;;;21.70;61.90;;;;;;5072072;28;20030;-61
2021/06/01 17:54:55;;;;;;;21.95;11.63;;;21.90;61.20;;;;;;5071942;28;20417;-62
2021/06/01 17:57:22;;;;;;;26.38;16.67;;;21.80;61.60;;;;;;5071558;28;20109;-61
2021/06/01 17:59:48;;;;;;;23.10;20.13;;;21.70;61.60;;;;;;5072119;28;20020;-61
2021/06/01 18:02:17;;;;;;;21.65;19.42;;;21.70;61.80;;;;;;5072101;28;20040;-61
2021/06/01 18:04:45;;;;;;;24.67;22.25;;;21.70;61.90;;;;;;5071519;28;20546;-67
2021/06/01 18:35:22;;;;;;;19.23;15.90;;;21.60;62.20;;;;;;5095998;28;20041;-58
2021/06/01 18:43:22;;;;;;;17.10;15.18;;;21.70;62.30;;;;;;5095928;28;20129;-61
2021/06/01 19:51:20;;;;;;;18.97;13.30;;;21.70;64.40;;;;;;5072625;28;20448;-59
2021/06/01 19:53:46;;;;;;;24.77;19.05;;;21.70;64.50;;;;;;5073486;28;20416;-59
2021/06/01 19:56:12;;;;;;;18.38;14.07;;;21.70;64.20;;;;;;5092873;28;20361;-59
2021/06/01 19:58:41;;;;;;;18.80;13.98;;;21.70;64.30;;;;;;5081983;28;20061;-56
2021/06/01 20:01:08;;;;;;;17.33;14.00;;;21.70;64.40;;;;;;5074547;28;20065;-57
2021/06/01 20:03:34;;;;;;;15.93;13.30;;;21.70;64.60;;;;;;5073702;28;20109;-58
2021/06/01 20:06:03;;;;;;;17.02;15.25;;;21.70;64.40;;;;;;5073660;28;20059;-60